Time;durP1;ratioP1;P1;durP2;ratioP2;P2;SDS_P1;SDS_P2;PMS_P1;PMS_P2;Temp;Humidity;BMP_temperature;BMP_pressure;BME280_temperature;BME280_humidity;BME280_pressure;Samples;Min_cycle;Max_cycle;Signal;HPM_P1;HPM_P2
2023/04/10 00:01:41;;;;;;;;;15.33;14.33;;;;;12.69;58.08;101630.63;5118981;27;45578;-65
2023/04/10 00:04:06;;;;;;;;;16.67;16.00;;;;;12.70;58.20;101636.78;5119570;27;45455;-65
2023/04/10 00:06:32;;;;;;;;;16.00;15.00;;;;;12.71;58.84;101649.09;5119606;27;45215;-65
2023/04/10 00:08:57;;;;;;;;;18.00;16.33;;;;;12.71;58.95;101649.97;5119824;27;45439;-65
2023/04/10 00:11:24;;;;;;;;;14.00;14.00;;;;;12.68;58.45;101639.44;5119623;27;45255;-65
2023/04/10 00:13:50;;;;;;;;;15.00;14.00;;;;;12.62;58.51;101633.38;5119820;27;45246;-65
2023/04/10 00:16:15;;;;;;;;;15.00;15.00;;;;;12.64;58.67;101643.03;5119898;27;46053;-65
2023/04/10 00:18:40;;;;;;;;;17.67;14.00;;;;;12.50;58.89;101608.03;5119583;27;45415;-65
2023/04/10 00:21:06;;;;;;;;;14.00;13.00;;;;;12.60;59.02;101629.91;5119359;27;47429;-65
2023/04/10 00:23:33;;;;;;;;;15.67;12.67;;;;;12.34;58.98;101581.91;5119384;27;45402;-65
2023/04/10 00:26:02;;;;;;;;;19.00;14.33;;;;;12.53;58.65;101618.56;5119359;27;45326;-65
2023/04/10 00:28:27;;;;;;;;;17.33;15.33;;;;;12.58;58.89;101624.66;5119787;27;45465;-65
2023/04/10 00:30:53;;;;;;;;;16.00;15.00;;;;;12.57;58.99;101625.53;5119118;27;46359;-65
2023/04/10 00:33:18;;;;;;;;;15.00;15.00;;;;;12.47;59.09;101605.47;5119344;27;45241;-65
2023/04/10 00:35:44;;;;;;;;;17.33;14.33;;;;;12.48;59.16;101604.56;5119358;27;45441;-65
2023/04/10 00:38:09;;;;;;;;;15.00;12.00;;;;;12.46;59.35;101603.72;5119346;27;45263;-65
2023/04/10 00:40:35;;;;;;;;;17.33;15.33;;;;;12.46;59.07;101609.88;5119049;27;45373;-65
2023/04/10 00:43:00;;;;;;;;;18.00;15.00;;;;;12.41;59.22;101602.94;5119330;27;45384;-65
2023/04/10 00:45:26;;;;;;;;;15.67;14.33;;;;;12.40;59.41;101602.03;5119279;27;45441;-65
2023/04/10 00:47:52;;;;;;;;;12.33;12.33;;;;;12.38;59.18;101592.41;5119353;27;45783;-65
2023/04/10 00:50:19;;;;;;;;;15.67;13.00;;;;;12.36;59.66;101589.81;5118859;27;45363;-65
2023/04/10 00:52:44;;;;;;;;;15.33;13.33;;;;;12.38;59.45;101589.78;5119101;27;45401;-65
2023/04/10 00:55:10;;;;;;;;;18.67;15.00;;;;;12.38;59.46;101590.63;5118799;27;45512;-65
2023/04/10 00:57:36;;;;;;;;;17.67;14.33;;;;;12.36;59.39;101584.53;5117942;27;45856;-65
2023/04/10 01:00:03;;;;;;;;;13.00;13.00;;;;;12.31;59.55;101570.50;5118691;27;47383;-65
2023/04/10 01:02:29;;;;;;;;;15.00;14.00;;;;;12.38;59.99;101589.78;5117268;27;45332;-65
2023/04/10 01:04:54;;;;;;;;;15.67;13.00;;;;;12.29;60.04;101574.97;5118804;27;45283;-65
2023/04/10 01:07:57;;;;;;;;;21.67;16.00;;;;;12.36;59.37;101588.03;5119073;27;45564;-66
2023/04/10 01:10:31;;;;;;;;;12.67;12.00;;;;;12.34;59.59;101587.19;5118568;27;46565;-65
2023/04/10 01:13:04;;;;;;;;;11.00;11.00;;;;;12.30;59.36;101585.50;5118470;27;45426;-65
2023/04/10 01:15:55;;;;;;;;;10.33;10.00;;;;;12.27;60.29;101585.56;5118702;27;45309;-65
2023/04/10 01:18:52;;;;;;;;;16.00;13.67;;;;;12.24;60.08;101572.38;5048705;28;45414;-65
2023/04/10 01:21:20;;;;;;;;;16.67;14.67;;;;;12.16;60.58;101556.66;5034826;28;45514;-65
2023/04/10 01:24:16;;;;;;;;;15.00;12.67;;;;;12.13;60.64;101556.72;5035005;28;45419;-65
2023/04/10 01:27:21;;;;;;;;;17.00;17.00;;;;;12.09;60.66;101557.66;5035000;28;45535;-65
2023/04/10 01:29:54;;;;;;;;;12.67;12.67;;;;;12.06;60.79;101556.84;5034547;28;45284;-65
2023/04/10 01:32:21;;;;;;;;;13.00;12.00;;;;;11.97;61.14;101539.38;5034632;28;45460;-65
2023/04/10 01:34:50;;;;;;;;;13.33;12.00;;;;;11.98;61.03;101547.28;5034706;28;45386;-65
2023/04/10 01:37:20;;;;;;;;;13.67;12.33;;;;;12.00;60.28;101550.75;5034689;28;46436;-65
2023/04/10 01:39:52;;;;;;;;;13.00;10.67;;;;;11.97;61.10;101548.16;5035135;28;45393;-65
2023/04/10 01:42:21;;;;;;;;;13.33;12.67;;;;;11.89;60.97;101535.97;5034370;28;45448;-65
2023/04/10 01:44:49;;;;;;;;;19.67;15.33;;;;;11.96;61.29;101541.13;5034844;28;45456;-65
2023/04/10 01:47:16;;;;;;;;;16.67;15.00;;;;;11.86;61.45;101536.88;5034698;28;45324;-65
2023/04/10 01:49:45;;;;;;;;;17.00;16.33;;;;;11.93;61.30;101538.56;5034797;28;45528;-65
2023/04/10 01:52:12;;;;;;;;;18.33;14.67;;;;;11.94;60.88;101534.16;5034357;28;46571;-65
2023/04/10 01:54:39;;;;;;;;;15.33;14.00;;;;;11.95;61.10;101533.25;5048401;27;45280;-65
2023/04/10 01:57:05;;;;;;;;;14.33;14.33;;;;;11.97;60.79;101544.66;5118215;27;45410;-65
2023/04/10 01:59:30;;;;;;;;;15.67;15.67;;;;;11.85;60.54;101522.81;5117221;27;45337;-65
2023/04/10 02:02:00;;;;;;;;;9.00;9.00;;;;;11.93;60.51;101541.19;5101901;27;45402;-65
2023/04/10 02:04:25;;;;;;;;;15.67;15.67;;;;;11.88;60.70;101535.09;5108886;27;45374;-65
2023/04/10 02:07:30;;;;;;;;;13.67;13.67;;;;;11.88;60.38;101526.28;5118090;27;45360;-65
2023/04/10 02:10:14;;;;;;;;;11.67;10.67;;;;;11.91;60.62;101531.50;5075100;28;45362;-65
2023/04/10 02:12:54;;;;;;;;;20.33;16.67;;;;;11.89;60.52;101526.25;5074645;28;46031;-65
2023/04/10 02:15:22;;;;;;;;;14.67;14.67;;;;;11.80;60.49;101508.81;5074655;28;45355;-65
2023/04/10 02:17:50;;;;;;;;;14.33;12.33;;;;;11.84;60.44;101510.50;5074883;28;45490;-65
2023/04/10 02:20:17;;;;;;;;;17.67;12.00;;;;;11.92;59.91;101528.00;5074835;28;45419;-65
2023/04/10 02:22:43;;;;;;;;;14.33;13.00;;;;;11.92;60.08;101526.25;5074071;28;46285;-65
2023/04/10 02:25:09;;;;;;;;;14.00;12.33;;;;;11.78;60.55;101502.69;5077768;28;45417;-65
2023/04/10 02:27:36;;;;;;;;;14.33;14.33;;;;;11.88;59.63;101510.47;5078214;27;45394;-65
2023/04/10 02:30:03;;;;;;;;;15.00;14.00;;;;;11.80;59.48;101497.41;5078383;28;45470;-65
2023/04/10 02:32:29;;;;;;;;;16.00;13.67;;;;;11.85;59.62;101504.34;5077772;28;46529;-65
2023/04/10 02:34:55;;;;;;;;;18.33;16.00;;;;;11.85;60.17;101498.19;5077684;28;45345;-65
2023/04/10 02:37:20;;;;;;;;;15.67;11.33;;;;;11.83;59.50;101494.69;5078156;27;45463;-65
2023/04/10 02:39:46;;;;;;;;;15.33;13.67;;;;;11.88;59.28;101497.25;5078108;28;45524;-65
2023/04/10 02:42:11;;;;;;;;;16.00;15.00;;;;;11.89;60.08;101491.09;5077716;28;45791;-65
2023/04/10 02:44:38;;;;;;;;;13.67;13.00;;;;;11.51;60.17;101435.41;5085475;27;45358;-65
2023/04/10 02:47:04;;;;;;;;;12.33;11.00;;;;;11.87;59.81;101495.53;5121094;27;45461;-65
2023/04/10 02:49:30;;;;;;;;;11.33;11.33;;;;;11.86;59.62;101492.00;5121059;27;45161;-65
2023/04/10 02:51:56;;;;;;;;;15.33;13.00;;;;;11.85;59.35;101492.94;5119562;27;46365;-65
2023/04/10 02:54:21;;;;;;;;;13.00;13.00;;;;;11.74;59.69;101474.63;5121001;27;45380;-65
2023/04/10 02:56:46;;;;;;;;;18.00;16.00;;;;;11.85;59.77;101483.22;5120940;27;45467;-65
2023/04/10 02:59:12;;;;;;;;;13.67;12.00;;;;;11.81;59.94;101480.69;5121133;27;45259;-65
2023/04/10 03:01:38;;;;;;;;;11.00;11.00;;;;;11.79;59.70;101470.16;5120870;27;45364;-65
2023/04/10 03:04:04;;;;;;;;;13.67;13.33;;;;;11.80;59.67;101478.91;5120611;27;45322;-65
2023/04/10 03:06:29;;;;;;;;;13.33;13.00;;;;;11.81;59.58;101472.75;5120760;27;45467;-65
2023/04/10 03:08:55;;;;;;;;;15.00;12.00;;;;;11.89;59.73;101476.13;5120905;27;45375;-65
2023/04/10 03:11:21;;;;;;;;;14.67;12.67;;;;;11.84;59.83;101468.28;5120388;27;46125;-65
2023/04/10 03:13:47;;;;;;;;;13.00;13.00;;;;;11.80;59.70;101456.03;5120711;27;45311;-65
2023/04/10 03:16:13;;;;;;;;;16.67;13.00;;;;;11.83;59.66;101458.63;5120712;27;45329;-65
2023/04/10 03:18:38;;;;;;;;;17.67;15.00;;;;;11.86;59.70;101457.69;5120816;27;45308;-65
2023/04/10 03:21:04;;;;;;;;;13.67;13.67;;;;;11.85;59.39;101450.72;5120198;27;46464;-65
2023/04/10 03:23:29;;;;;;;;;10.67;10.00;;;;;11.85;59.58;101458.63;5120563;27;45303;-65
2023/04/10 03:25:55;;;;;;;;;11.33;11.33;;;;;11.72;59.25;101428.94;5120561;27;45721;-65
2023/04/10 03:28:21;;;;;;;;;16.33;13.00;;;;;11.74;59.50;101434.19;5120665;27;45421;-65
2023/04/10 03:30:47;;;;;;;;;13.67;12.00;;;;;11.71;59.33;101432.44;5120354;27;45473;-65
2023/04/10 03:33:13;;;;;;;;;15.33;13.67;;;;;11.68;59.80;101421.97;5120098;27;45603;-65
2023/04/10 03:35:38;;;;;;;;;12.00;12.00;;;;;11.76;59.58;101438.53;5118902;27;45443;-65
2023/04/10 03:38:03;;;;;;;;;17.67;13.33;;;;;11.65;59.55;101422.00;5120651;27;45342;-65
2023/04/10 03:40:29;;;;;;;;;15.00;14.00;;;;;11.64;59.53;101431.66;5119964;27;47321;-65
2023/04/10 03:42:54;;;;;;;;;18.33;16.67;;;;;11.46;59.65;101395.06;5120105;27;45339;-65
2023/04/10 03:45:19;;;;;;;;;12.67;12.67;;;;;11.68;59.93;101435.16;5119968;27;45457;-65
2023/04/10 03:47:45;;;;;;;;;17.33;15.67;;;;;11.58;59.58;101423.00;5120320;27;45561;-65
2023/04/10 03:50:10;;;;;;;;;15.67;15.67;;;;;11.53;60.20;101411.66;5120003;27;46281;-65
2023/04/10 03:52:36;;;;;;;;;16.33;13.00;;;;;11.55;59.52;101415.16;5120122;27;45376;-65
2023/04/10 03:55:01;;;;;;;;;12.00;11.33;;;;;11.57;59.16;101418.63;5120353;27;45238;-65
2023/04/10 03:57:26;;;;;;;;;17.33;14.00;;;;;11.61;59.69;101429.09;5120091;27;45294;-65
2023/04/10 03:59:52;;;;;;;;;15.67;12.00;;;;;11.58;59.48;101418.59;5119827;27;45347;-65
2023/04/10 04:02:17;;;;;;;;;17.33;14.67;;;;;11.54;59.40;101410.75;5120013;27;45346;-65
2023/04/10 04:04:42;;;;;;;;;14.67;12.00;;;;;11.54;59.28;101416.91;5119695;27;45386;-65
2023/04/10 04:07:09;;;;;;;;;15.00;12.00;;;;;11.33;59.45;101378.56;5120205;27;45440;-65
2023/04/10 04:09:34;;;;;;;;;14.33;14.33;;;;;11.58;59.54;101425.63;5119544;27;45389;-65
2023/04/10 04:12:00;;;;;;;;;17.33;14.33;;;;;11.55;59.55;101423.06;5119443;27;45392;-65
2023/04/10 04:14:25;;;;;;;;;12.67;11.00;;;;;11.62;59.43;101416.78;5119892;27;45610;-65
2023/04/10 04:16:50;;;;;;;;;15.00;13.00;;;;;11.49;58.94;101395.00;5119916;27;45173;-65
2023/04/10 04:19:16;;;;;;;;;14.33;13.33;;;;;11.59;59.00;101415.06;5119553;27;45517;-65
2023/04/10 04:21:41;;;;;;;;;17.00;14.67;;;;;11.55;59.14;101413.38;5119323;27;45306;-65
2023/04/10 04:24:06;;;;;;;;;15.67;15.67;;;;;11.48;59.51;101401.19;5119635;27;45457;-65
2023/04/10 04:26:32;;;;;;;;;16.00;13.67;;;;;11.50;59.10;101402.91;5119740;27;45256;-65
2023/04/10 04:28:57;;;;;;;;;11.67;11.67;;;;;11.53;59.28;101409.00;5119345;27;46458;-65
2023/04/10 04:31:23;;;;;;;;;12.33;12.33;;;;;11.47;59.42;101400.31;5119381;27;45340;-65
2023/04/10 04:33:49;;;;;;;;;24.67;17.33;;;;;11.42;59.21;101382.81;5119334;27;45323;-65
2023/04/10 04:36:15;;;;;;;;;17.33;14.33;;;;;11.37;59.61;101376.72;5119267;27;45307;-65
2023/04/10 04:38:41;;;;;;;;;15.33;12.67;;;;;11.42;59.64;101372.28;5119235;27;46713;-65
2023/04/10 04:41:06;;;;;;;;;9.67;9.00;;;;;11.47;59.77;101386.25;5118937;27;45257;-65
2023/04/10 04:43:32;;;;;;;;;14.33;13.00;;;;;11.38;59.88;101365.31;5119458;27;45171;-65
2023/04/10 04:45:58;;;;;;;;;15.33;13.67;;;;;11.46;59.69;101382.75;5118984;27;45462;-65
2023/04/10 04:48:23;;;;;;;;;12.00;10.33;;;;;11.40;59.42;101371.41;5119113;27;45295;-65
2023/04/10 04:50:48;;;;;;;;;10.67;10.00;;;;;11.41;59.47;101389.84;5119122;27;45855;-65
2023/04/10 04:53:14;;;;;;;;;14.00;13.00;;;;;11.33;59.41;101375.94;5119113;27;45585;-65
2023/04/10 04:55:40;;;;;;;;;12.00;12.00;;;;;11.35;59.49;101376.75;5119397;27;45537;-65
2023/04/10 04:58:05;;;;;;;;;13.67;10.67;;;;;11.34;59.35;101388.19;5118901;27;46222;-65
2023/04/10 05:00:30;;;;;;;;;14.33;12.00;;;;;11.28;59.39;101383.03;5118933;27;45375;-65
2023/04/10 05:02:56;;;;;;;;;14.33;13.00;;;;;11.28;59.77;101380.38;5118927;27;45259;-65
2023/04/10 05:05:21;;;;;;;;;16.00;15.67;;;;;11.36;59.49;101389.06;5119163;27;45493;-65
2023/04/10 05:07:46;;;;;;;;;14.33;14.33;;;;;11.37;59.62;101388.19;5118798;27;45379;-65
2023/04/10 05:10:11;;;;;;;;;12.00;9.67;;;;;11.38;59.63;101384.63;5118712;27;45267;-65
2023/04/10 05:12:37;;;;;;;;;13.00;13.00;;;;;11.39;59.57;101385.50;5118890;27;45328;-65
2023/04/10 05:15:03;;;;;;;;;13.67;12.00;;;;;11.40;60.04;101380.22;5119004;27;45648;-65
2023/04/10 05:17:28;;;;;;;;;18.00;15.67;;;;;11.29;59.74;101358.41;5118640;27;45454;-65
2023/04/10 05:19:53;;;;;;;;;13.00;13.00;;;;;11.43;59.91;101382.78;5118525;27;45527;-65
2023/04/10 05:22:18;;;;;;;;;17.00;16.33;;;;;11.44;59.95;101376.63;5118852;27;45404;-65
2023/04/10 05:24:44;;;;;;;;;13.00;13.00;;;;;11.41;59.74;101373.16;5119039;27;45311;-65
2023/04/10 05:27:09;;;;;;;;;15.00;12.00;;;;;11.42;59.48;101367.00;5118234;27;46557;-65
2023/04/10 05:29:35;;;;;;;;;12.00;12.00;;;;;11.51;59.67;101385.28;5118474;27;45431;-65
2023/04/10 05:32:00;;;;;;;;;13.33;11.67;;;;;11.49;59.67;101373.91;5118727;27;45631;-65
2023/04/10 05:34:25;;;;;;;;;14.00;13.67;;;;;11.47;59.55;101370.41;5118444;27;45537;-65
2023/04/10 05:36:51;;;;;;;;;15.00;13.33;;;;;11.48;59.71;101365.13;5118458;27;45453;-65
2023/04/10 05:39:16;;;;;;;;;14.33;14.33;;;;;11.50;59.85;101355.44;5118435;27;45309;-65
2023/04/10 05:41:42;;;;;;;;;17.33;13.33;;;;;11.47;59.40;101358.13;5118146;27;45356;-65
2023/04/10 05:44:07;;;;;;;;;14.33;13.67;;;;;11.36;59.53;101340.75;5118838;27;45437;-65
2023/04/10 05:46:32;;;;;;;;;11.33;11.00;;;;;11.50;59.56;101371.25;5118102;27;46337;-65
2023/04/10 05:48:59;;;;;;;;;15.00;14.67;;;;;11.40;59.27;101352.94;5118460;27;45214;-65
2023/04/10 05:51:25;;;;;;;;;21.33;14.33;;;;;11.47;59.26;101375.69;5118155;27;45520;-66
2023/04/10 05:53:50;;;;;;;;;12.67;12.33;;;;;11.51;59.33;101380.03;5118326;27;45433;-66
2023/04/10 05:56:15;;;;;;;;;11.67;11.33;;;;;11.54;59.14;101381.75;5118140;27;46700;-66
2023/04/10 05:58:41;;;;;;;;;16.33;14.67;;;;;11.52;59.20;101373.84;5119258;27;45255;-65
2023/04/10 06:01:06;;;;;;;;;15.33;11.67;;;;;11.50;59.07;101368.63;5121835;27;45437;-66
2023/04/10 06:03:32;;;;;;;;;13.67;13.67;;;;;11.40;59.49;101352.94;5121705;27;45298;-66
2023/04/10 06:05:59;;;;;;;;;18.00;16.00;;;;;11.47;59.41;101363.41;5121361;27;46311;-65
2023/04/10 06:08:25;;;;;;;;;13.67;13.67;;;;;11.46;59.69;101353.72;5121773;27;45300;-65
2023/04/10 06:10:50;;;;;;;;;10.00;10.00;;;;;11.46;59.83;101350.25;5121634;27;45941;-65
2023/04/10 06:13:15;;;;;;;;;15.33;13.00;;;;;11.42;59.56;101330.94;5121774;27;45237;-65
2023/04/10 06:15:41;;;;;;;;;13.67;12.00;;;;;11.52;59.40;101334.31;5121517;27;46009;-65
2023/04/10 06:18:06;;;;;;;;;13.33;13.33;;;;;11.52;59.38;101328.13;5121473;27;45359;-65
2023/04/10 06:20:32;;;;;;;;;14.00;13.00;;;;;11.57;58.86;101334.22;5121473;27;45310;-65
2023/04/10 06:22:58;;;;;;;;;17.00;14.33;;;;;11.53;58.99;101336.06;5121525;27;45354;-65
2023/04/10 06:25:23;;;;;;;;;18.67;15.33;;;;;11.59;58.95;101343.84;5121261;27;46455;-65
2023/04/10 06:27:49;;;;;;;;;15.00;12.33;;;;;11.27;58.68;101292.53;5121262;27;45309;-65
2023/04/10 06:30:14;;;;;;;;;21.00;16.00;;;;;11.34;58.68;101277.47;5121349;27;45425;-65
2023/04/10 06:32:40;;;;;;;;;13.33;13.00;;;;;11.63;58.58;101320.91;5121667;27;45328;-65
2023/04/10 06:35:06;;;;;;;;;15.00;13.67;;;;;11.80;58.90;101347.84;5120948;27;46104;-65
2023/04/10 06:37:31;;;;;;;;;13.67;12.67;;;;;11.88;59.06;101345.09;5121288;27;45332;-65
2023/04/10 06:40:06;;;;;;;;;11.00;10.33;;;;;11.85;58.46;101331.97;5120947;27;45495;-65
2023/04/10 06:42:31;;;;;;;;;16.00;15.00;;;;;11.84;58.65;101327.56;5121642;27;45197;-65
2023/04/10 06:44:56;;;;;;;;;11.67;11.00;;;;;11.85;58.66;101322.28;5121038;27;45866;-65
2023/04/10 06:47:22;;;;;;;;;17.33;15.33;;;;;11.91;59.05;101312.47;5120990;27;45309;-65
2023/04/10 06:49:47;;;;;;;;;14.33;11.33;;;;;11.97;58.73;101309.78;5121176;27;45312;-65
2023/04/10 06:52:12;;;;;;;;;12.67;11.33;;;;;11.99;58.51;101307.97;5121335;27;45329;-65
2023/04/10 06:54:38;;;;;;;;;16.00;15.00;;;;;11.81;58.33;101272.22;5120876;27;46215;-65
2023/04/10 06:57:03;;;;;;;;;11.67;11.67;;;;;11.98;58.51;101295.66;5120823;27;45329;-65
2023/04/10 06:59:29;;;;;;;;;12.00;11.67;;;;;11.99;58.59;101302.69;5121026;27;45409;-65
2023/04/10 07:01:54;;;;;;;;;10.00;10.00;;;;;12.02;58.65;101298.25;5121092;27;45375;-65
2023/04/10 07:04:20;;;;;;;;;14.33;13.00;;;;;12.02;58.79;101286.78;5120653;27;46348;-64
2023/04/10 07:06:45;;;;;;;;;15.67;14.33;;;;;12.05;58.22;101284.09;5120375;27;45830;-65
2023/04/10 07:09:10;;;;;;;;;14.67;14.67;;;;;12.01;58.41;101285.94;5120631;27;45339;-66
2023/04/10 07:11:36;;;;;;;;;15.00;12.67;;;;;12.09;58.88;101279.63;5120874;27;45432;-66
2023/04/10 07:14:01;;;;;;;;;17.00;12.33;;;;;12.13;58.46;101284.81;5120693;27;46312;-66
2023/04/10 07:16:28;;;;;;;;;14.67;12.67;;;;;11.96;58.11;101248.19;5120387;27;45441;-66
2023/04/10 07:18:53;;;;;;;;;17.00;15.00;;;;;12.17;58.31;101272.44;5120616;27;45295;-66
2023/04/10 07:21:19;;;;;;;;;15.33;13.67;;;;;12.25;58.40;101264.34;5119699;27;45406;-67
2023/04/10 07:23:44;;;;;;;;;14.67;11.33;;;;;12.37;58.04;101271.97;5120180;27;46259;-66
2023/04/10 07:26:09;;;;;;;;;15.67;13.67;;;;;12.50;58.15;101277.88;5120362;27;45365;-66
2023/04/10 07:28:35;;;;;;;;;13.67;13.67;;;;;12.65;57.64;101290.75;5120406;27;45344;-66
2023/04/10 07:31:01;;;;;;;;;17.33;16.00;;;;;12.73;57.51;101300.25;5118935;27;45462;-66
2023/04/10 07:33:26;;;;;;;;;27.00;23.33;;;;;12.72;57.07;101288.81;5120029;27;46105;-66
2023/04/10 07:35:52;;;;;;;;;15.33;13.00;;;;;12.71;57.37;101272.09;5119825;27;45474;-67
2023/04/10 07:38:17;;;;;;;;;12.67;10.67;;;;;12.81;57.30;101277.16;5119996;27;45426;-68
2023/04/10 07:40:43;;;;;;;;;16.33;14.00;;;;;12.76;57.46;101257.91;5119922;27;45490;-67
2023/04/10 07:43:08;;;;;;;;;17.00;16.00;;;;;12.84;58.03;101267.41;5119818;27;45596;-66
2023/04/10 07:45:34;;;;;;;;;14.00;13.67;;;;;12.92;57.24;101250.47;5120033;27;45445;-64
2023/04/10 07:47:59;;;;;;;;;15.00;15.00;;;;;13.01;57.73;101247.59;5120076;27;45785;-64
2023/04/10 07:50:24;;;;;;;;;14.33;13.33;;;;;13.13;57.44;101247.31;5120017;27;45241;-64
2023/04/10 07:52:50;;;;;;;;;17.67;14.00;;;;;13.31;56.98;101250.38;5119812;27;47056;-64
2023/04/10 07:55:15;;;;;;;;;14.00;12.67;;;;;13.19;56.86;101206.63;5119637;27;45374;-64
2023/04/10 07:57:40;;;;;;;;;14.00;12.33;;;;;13.54;56.02;101248.03;5119772;27;45446;-64
2023/04/10 08:00:06;;;;;;;;;13.33;11.33;;;;;13.73;55.83;101250.19;5120013;27;45281;-64
2023/04/10 08:02:32;;;;;;;;;19.67;18.00;;;;;13.80;55.39;101237.66;5119683;27;46496;-64
2023/04/10 08:04:57;;;;;;;;;21.00;18.33;;;;;13.98;55.12;101245.03;5119657;27;45306;-64
2023/04/10 08:07:22;;;;;;;;;14.00;14.00;;;;;14.04;54.61;101238.69;5119610;27;45302;-64
2023/04/10 08:09:47;;;;;;;;;17.67;14.67;;;;;14.14;54.15;101242.81;5119984;27;45313;-64
2023/04/10 08:12:13;;;;;;;;;15.00;12.33;;;;;14.14;54.74;101236.66;5119620;27;45386;-64
2023/04/10 08:14:38;;;;;;;;;12.00;12.00;;;;;14.15;54.51;101228.66;5119736;27;45274;-65
2023/04/10 08:17:04;;;;;;;;;13.00;13.00;;;;;14.23;53.32;101242.56;5119633;27;45366;-64
2023/04/10 08:19:29;;;;;;;;;14.33;14.33;;;;;14.34;54.11;101236.06;5119832;27;45318;-64
2023/04/10 08:21:54;;;;;;;;;11.67;11.67;;;;;14.32;53.17;101192.84;5118478;27;46497;-66
2023/04/10 08:24:21;;;;;;;;;12.00;12.00;;;;;14.91;52.90;101229.84;5119438;27;45277;-66
2023/04/10 08:26:47;;;;;;;;;19.00;17.00;;;;;15.45;51.47;101221.81;5118009;27;45399;-65
2023/04/10 08:29:12;;;;;;;;;13.33;11.00;;;;;15.94;51.00;101203.25;5119553;27;45317;-67
2023/04/10 08:31:38;;;;;;;;;13.67;13.67;;;;;16.41;48.94;101210.31;5118573;27;46411;-67
2023/04/10 08:34:03;;;;;;;;;14.00;14.00;;;;;16.60;49.38;101208.66;5119169;27;45423;-66
2023/04/10 08:36:30;;;;;;;;;10.67;10.33;;;;;16.59;49.85;101193.63;5119077;27;45367;-67
2023/04/10 08:38:55;;;;;;;;;14.00;11.67;;;;;16.67;48.70;101201.28;5119444;27;45435;-67
2023/04/10 08:41:21;;;;;;;;;15.67;13.67;;;;;16.86;48.79;101204.94;5118566;27;45443;-65
2023/04/10 08:43:48;;;;;;;;;16.67;14.67;;;;;17.17;47.64;101193.00;5119027;27;45236;-64
2023/04/10 08:46:14;;;;;;;;;15.67;12.00;;;;;17.63;48.06;101195.44;5118894;27;45284;-64
2023/04/10 08:48:47;;;;;;;;;14.00;12.33;;;;;18.03;46.52;101201.63;5119125;27;45226;-67
2023/04/10 08:51:21;;;;;;;;;13.00;12.00;;;;;18.12;46.02;101186.13;5118575;27;46547;-64
2023/04/10 08:53:50;;;;;;;;;10.33;8.33;;;;;18.21;45.43;101196.34;5118981;27;45263;-64
2023/04/10 08:56:17;;;;;;;;;14.00;12.33;;;;;18.26;45.45;101192.53;5119097;27;45206;-63
2023/04/10 08:58:42;;;;;;;;;10.00;10.00;;;;;17.84;44.79;101137.63;5118705;27;45399;-67
2023/04/10 09:01:10;;;;;;;;;12.33;11.67;;;;;18.03;44.01;101188.28;5118304;27;47213;-66
2023/04/10 09:03:36;;;;;;;;;11.00;10.00;;;;;17.97;44.67;101172.59;5118853;27;45392;-67
2023/04/10 09:06:03;;;;;;;;;10.33;8.33;;;;;17.90;44.76;101149.84;5119057;27;45291;-66
2023/04/10 09:08:28;;;;;;;;;10.67;10.00;;;;;18.12;44.53;101156.81;5118937;27;45625;-66
2023/04/10 09:10:54;;;;;;;;;10.67;10.67;;;;;18.25;44.20;101164.16;5118648;27;46413;-66
2023/04/10 09:13:36;;;;;;;;;11.00;10.00;;;;;18.16;44.99;101172.59;5118836;27;45179;-66
2023/04/10 09:16:01;;;;;;;;;10.00;8.00;;;;;18.05;44.29;101154.47;5118700;27;45326;-67
2023/04/10 09:18:44;;;;;;;;;9.00;9.00;;;;;17.98;44.63;101160.13;5118208;27;45392;-67
2023/04/10 09:21:12;;;;;;;;;10.67;9.33;;;;;17.98;44.75;101166.34;5117954;27;46083;-67
2023/04/10 09:23:37;;;;;;;;;10.00;7.67;;;;;18.07;44.91;101165.91;5118371;27;45402;-66
2023/04/10 09:26:25;;;;;;;;;11.33;9.33;;;;;18.00;44.73;101151.13;5118327;27;45412;-65
2023/04/10 09:29:17;;;;;;;;;10.33;10.33;;;;;18.10;45.04;101133.78;5118648;27;45298;-66
2023/04/10 09:31:42;;;;;;;;;10.67;10.67;;;;;18.13;44.73;101137.25;5116930;27;45368;-66
2023/04/10 09:34:13;;;;;;;;;7.67;6.33;;;;;18.00;43.95;101116.50;5121757;27;45436;-66
2023/04/10 09:36:40;;;;;;;;;13.00;12.33;;;;;18.16;44.86;101124.63;5122100;27;45440;-66
2023/04/10 09:39:06;;;;;;;;;11.67;10.00;;;;;18.25;44.05;101123.31;5122237;27;45528;-65
2023/04/10 09:41:32;;;;;;;;;13.00;10.00;;;;;18.09;44.21;101116.06;5121605;27;46365;-64
2023/04/10 09:44:09;;;;;;;;;10.00;9.00;;;;;18.05;44.79;101127.81;5121901;27;45247;-65
2023/04/10 09:46:34;;;;;;;;;10.00;10.00;;;;;17.89;44.85;101113.44;5121964;27;45236;-66
2023/04/10 09:49:03;;;;;;;;;13.67;11.00;;;;;17.79;45.00;101122.81;5121965;27;45334;-63
2023/04/10 09:51:34;;;;;;;;;11.33;9.00;;;;;17.69;45.35;101117.94;5121602;27;45413;-64
2023/04/10 09:54:01;;;;;;;;;13.00;10.33;;;;;17.52;45.53;101113.38;5121587;27;45264;-64
2023/04/10 09:56:27;;;;;;;;;10.67;9.33;;;;;17.44;45.73;101110.22;5121910;27;45225;-64
2023/04/10 09:58:57;;;;;;;;;16.33;15.67;;;;;17.37;45.96;101114.09;5121498;27;45661;-64
2023/04/10 10:01:26;;;;;;;;;13.67;10.33;;;;;17.26;46.83;101111.91;5121456;27;45451;-64
2023/04/10 10:03:53;;;;;;;;;19.00;18.00;;;;;17.26;46.87;101100.41;5121633;27;45223;-63
2023/04/10 10:06:19;;;;;;;;;9.67;8.67;;;;;17.14;46.67;101101.81;5121619;27;45596;-64
2023/04/10 10:08:47;;;;;;;;;13.67;12.33;;;;;17.04;47.88;101094.22;5121420;27;45512;-65
2023/04/10 10:11:17;;;;;;;;;9.33;6.67;;;;;17.04;48.77;101091.56;5121506;27;46496;-65
2023/04/10 10:14:10;;;;;;;;;12.00;9.67;;;;;17.10;48.11;101101.06;5121516;27;45440;-65
2023/04/10 10:16:43;;;;;;;;;12.33;11.33;;;;;16.92;48.81;101100.09;5098379;27;45607;-65
2023/04/10 10:19:24;;;;;;;;;10.00;9.00;;;;;16.84;49.18;101115.47;5098432;27;45559;-66
2023/04/10 10:21:51;;;;;;;;;11.33;10.00;;;;;16.71;49.76;101104.50;5098007;27;47378;-67
2023/04/10 10:24:19;;;;;;;;;9.67;9.67;;;;;16.43;50.99;101076.44;5098458;27;45417;-66
2023/04/10 10:26:46;;;;;;;;;10.67;10.00;;;;;16.45;51.44;101087.84;5097962;27;45305;-66
2023/04/10 10:29:16;;;;;;;;;18.33;16.33;;;;;16.48;52.30;101100.16;5098806;27;45272;-66
2023/04/10 10:31:42;;;;;;;;;14.67;12.33;;;;;16.40;53.02;101087.19;5098242;27;46281;-66
2023/04/10 10:34:08;;;;;;;;;12.33;10.67;;;;;16.46;53.69;101094.06;5098287;27;45457;-66
2023/04/10 10:36:35;;;;;;;;;11.00;11.00;;;;;16.43;54.46;101083.56;5098490;27;45328;-66
2023/04/10 10:39:18;;;;;;;;;19.33;14.33;;;;;16.46;55.67;101086.09;5098192;27;45310;-65
2023/04/10 10:42:07;;;;;;;;;15.33;14.00;;;;;16.39;55.88;101085.47;5077201;27;46419;-65
2023/04/10 10:45:06;;;;;;;;;15.67;11.67;;;;;16.32;55.17;101082.22;5016497;28;45437;-65
2023/04/10 10:47:37;;;;;;;;;15.00;14.33;;;;;16.23;55.74;101071.94;5017586;28;45377;-65
2023/04/10 10:50:03;;;;;;;;;15.00;13.67;;;;;16.17;57.14;101077.53;5017633;28;45366;-65
2023/04/10 10:52:48;;;;;;;;;13.00;12.00;;;;;16.10;55.93;101065.41;5017175;28;47185;-65
2023/04/10 10:55:35;;;;;;;;;16.00;13.67;;;;;15.97;56.98;101057.91;5017237;28;45434;-65
2023/04/10 10:58:04;;;;;;;;;19.33;12.67;;;;;15.92;57.73;101057.25;5017293;28;45455;-66
2023/04/10 11:00:50;;;;;;;;;12.00;12.00;;;;;15.88;58.29;101070.72;5017390;28;45473;-65
2023/04/10 11:03:16;;;;;;;;;14.00;13.33;;;;;15.88;60.44;101055.66;5017111;28;45572;-65
2023/04/10 11:05:56;;;;;;;;;17.00;16.00;;;;;15.84;59.27;101033.69;5017010;28;45481;-65
2023/04/10 11:08:51;;;;;;;;;20.00;14.67;;;;;15.92;58.80;101035.16;5017226;28;45421;-66
2023/04/10 11:11:22;;;;;;;;;18.00;16.33;;;;;15.89;59.58;101030.84;5017560;28;45369;-65
2023/04/10 11:13:55;;;;;;;;;21.67;19.00;;;;;15.94;60.45;101031.50;5016796;28;47175;-66